Airfield :
LOGIN :

Register | Disclaimer

   EN    FR    IT 

 










Legend :    VFR   Marginal VFR   IFR   Intensive IFR   Very Intensive IFR
Visi :
Ceiling :
>= 8 km
>= 3000ft
5 to 8 km
1000 to 3000 ft
1500m to 5 km
500 to 1000 ft
800 to 1500m
200 to 500 ft
< 800m
< 200 ft
Symbols :   Thunderstorms  Fog  Heavy snow  Heavy precipitations  Wind > 20 kt
SIGMETs :     Misc.  Thunderstorms  Icing  Turbulence  Mountain Waves  Volcanic Ashes







- Airport Elevation : 1276 ft
- IATA code : STR


EDDS - Stuttgart

CURRENT METAR :
  • 120650Z 11001KT 9999 -SN FEW007 BKN010 00/M01 Q1022 NOSIG

EXPIRED METARs :
  • 120620Z 17001KT 9999 -SN FEW007 BKN011 00/M01 Q1022 BECMG OVC015
  • 120550Z VRB01KT 9999 -SN FEW007 OVC011 00/M01 Q1022 BECMG OVC015
  • 120520Z VRB02KT 8000 -SN OVC012 00/M01 Q1022 BECMG OVC015
  • 120450Z VRB01KT 9999 -SN BKN013 00/M01 Q1022
  • 120420Z VRB02KT 9999 BKN013 00/M01 Q1022

TAF TAF EDDS
Valid from the 12 at 06:00 until the 13 at 06:00 UTC


120500Z 1206/1306 VRB03KT 9999 BKN015
TEMPO 1206/1210 BKN012
BECMG 1211/1213 03005KT
TEMPO 1222/1306 BKN012
No reported NOTAMs for that airfield.



MET'MAP, your aeronautical weather chart ! - Copyright ORBIFLY December 2007 - Disclaimer

ORBIFLY MET'MAP TEAM :

Programming & Development : Alexandra Zaïnal
Concept & Development : Baudouin d'Aumeries
Co-Development & Prog : Marc-Olivier Méhu
Technical & hardware support : Manuel Goepfert

Contact : metmap@orbifly.com




SOURCES & CREDITS :

   NOAA